sensor_id;sensor_type;location;lat;lon;timestamp;P1;durP1;ratioP1;P2;durP2;ratioP2
3747;SDS011;1889;50.058;8.688;2023-05-07T00:01:17;2.75;;;1.47;;
3747;SDS011;1889;50.058;8.688;2023-05-07T00:03:46;1.82;;;1.60;;
3747;SDS011;1889;50.058;8.688;2023-05-07T00:06:15;2.15;;;1.70;;
3747;SDS011;1889;50.058;8.688;2023-05-07T00:08:45;3.12;;;1.87;;
3747;SDS011;1889;50.058;8.688;2023-05-07T00:11:14;3.40;;;2.10;;
3747;SDS011;1889;50.058;8.688;2023-05-07T00:13:43;2.65;;;1.57;;
3747;SDS011;1889;50.058;8.688;2023-05-07T00:16:13;3.05;;;1.80;;
3747;SDS011;1889;50.058;8.688;2023-05-07T00:18:42;1.70;;;1.60;;
3747;SDS011;1889;50.058;8.688;2023-05-07T00:21:12;2.92;;;1.80;;
3747;SDS011;1889;50.058;8.688;2023-05-07T00:23:42;2.12;;;1.50;;
3747;SDS011;1889;50.058;8.688;2023-05-07T00:26:11;2.22;;;1.82;;
3747;SDS011;1889;50.058;8.688;2023-05-07T00:28:40;2.12;;;1.80;;
3747;SDS011;1889;50.058;8.688;2023-05-07T00:31:10;3.70;;;1.92;;
3747;SDS011;1889;50.058;8.688;2023-05-07T00:33:39;3.42;;;1.40;;
3747;SDS011;1889;50.058;8.688;2023-05-07T00:36:08;1.67;;;1.57;;
3747;SDS011;1889;50.058;8.688;2023-05-07T00:38:37;2.42;;;1.70;;
3747;SDS011;1889;50.058;8.688;2023-05-07T00:41:07;2.20;;;1.55;;
3747;SDS011;1889;50.058;8.688;2023-05-07T00:43:36;2.15;;;1.50;;
3747;SDS011;1889;50.058;8.688;2023-05-07T00:46:06;2.85;;;1.70;;
3747;SDS011;1889;50.058;8.688;2023-05-07T00:48:35;2.70;;;1.52;;
3747;SDS011;1889;50.058;8.688;2023-05-07T00:51:05;3.52;;;1.72;;
3747;SDS011;1889;50.058;8.688;2023-05-07T00:53:34;1.67;;;1.57;;
3747;SDS011;1889;50.058;8.688;2023-05-07T00:56:03;2.65;;;1.60;;
3747;SDS011;1889;50.058;8.688;2023-05-07T00:58:34;1.90;;;1.80;;
3747;SDS011;1889;50.058;8.688;2023-05-07T01:01:04;2.00;;;1.77;;
3747;SDS011;1889;50.058;8.688;2023-05-07T01:03:33;2.90;;;1.85;;
3747;SDS011;1889;50.058;8.688;2023-05-07T01:06:03;2.05;;;1.77;;
3747;SDS011;1889;50.058;8.688;2023-05-07T01:08:33;4.20;;;2.10;;
3747;SDS011;1889;50.058;8.688;2023-05-07T01:11:03;2.92;;;1.72;;
3747;SDS011;1889;50.058;8.688;2023-05-07T01:13:34;2.92;;;1.72;;
3747;SDS011;1889;50.058;8.688;2023-05-07T01:16:05;2.95;;;1.98;;
3747;SDS011;1889;50.058;8.688;2023-05-07T01:18:34;4.33;;;1.82;;
3747;SDS011;1889;50.058;8.688;2023-05-07T01:21:04;2.83;;;1.80;;
3747;SDS011;1889;50.058;8.688;2023-05-07T01:23:35;2.90;;;1.87;;
3747;SDS011;1889;50.058;8.688;2023-05-07T01:26:05;2.40;;;1.72;;
3747;SDS011;1889;50.058;8.688;2023-05-07T01:28:34;2.67;;;2.00;;
3747;SDS011;1889;50.058;8.688;2023-05-07T01:31:04;2.08;;;1.67;;
3747;SDS011;1889;50.058;8.688;2023-05-07T01:33:34;3.35;;;1.90;;
3747;SDS011;1889;50.058;8.688;2023-05-07T01:36:04;2.10;;;1.77;;
3747;SDS011;1889;50.058;8.688;2023-05-07T01:38:36;2.02;;;1.82;;
3747;SDS011;1889;50.058;8.688;2023-05-07T01:41:07;2.12;;;1.60;;
3747;SDS011;1889;50.058;8.688;2023-05-07T01:43:37;2.42;;;1.80;;
3747;SDS011;1889;50.058;8.688;2023-05-07T01:46:08;2.50;;;1.37;;
3747;SDS011;1889;50.058;8.688;2023-05-07T01:48:39;2.95;;;2.15;;
3747;SDS011;1889;50.058;8.688;2023-05-07T01:51:11;3.20;;;2.00;;
3747;SDS011;1889;50.058;8.688;2023-05-07T01:53:40;1.50;;;1.40;;
3747;SDS011;1889;50.058;8.688;2023-05-07T01:56:11;3.60;;;1.62;;
3747;SDS011;1889;50.058;8.688;2023-05-07T01:58:40;1.72;;;1.62;;
3747;SDS011;1889;50.058;8.688;2023-05-07T02:01:09;1.67;;;1.57;;
3747;SDS011;1889;50.058;8.688;2023-05-07T02:03:39;2.00;;;1.87;;
3747;SDS011;1889;50.058;8.688;2023-05-07T02:06:08;2.30;;;1.77;;
3747;SDS011;1889;50.058;8.688;2023-05-07T02:08:37;2.02;;;1.85;;
3747;SDS011;1889;50.058;8.688;2023-05-07T02:11:07;2.22;;;2.00;;
3747;SDS011;1889;50.058;8.688;2023-05-07T02:13:36;4.35;;;2.00;;
3747;SDS011;1889;50.058;8.688;2023-05-07T02:16:06;3.50;;;1.90;;
3747;SDS011;1889;50.058;8.688;2023-05-07T02:18:35;4.17;;;2.02;;
3747;SDS011;1889;50.058;8.688;2023-05-07T02:21:05;2.85;;;1.70;;
3747;SDS011;1889;50.058;8.688;2023-05-07T02:23:34;2.50;;;1.65;;
3747;SDS011;1889;50.058;8.688;2023-05-07T02:26:04;2.00;;;1.70;;
3747;SDS011;1889;50.058;8.688;2023-05-07T02:28:33;1.82;;;1.72;;
3747;SDS011;1889;50.058;8.688;2023-05-07T02:31:05;2.17;;;1.98;;
3747;SDS011;1889;50.058;8.688;2023-05-07T02:33:34;2.15;;;1.80;;
3747;SDS011;1889;50.058;8.688;2023-05-07T02:36:07;1.98;;;1.70;;
3747;SDS011;1889;50.058;8.688;2023-05-07T02:38:37;1.87;;;1.70;;
3747;SDS011;1889;50.058;8.688;2023-05-07T02:41:07;1.98;;;1.87;;
3747;SDS011;1889;50.058;8.688;2023-05-07T02:43:36;2.35;;;1.77;;
3747;SDS011;1889;50.058;8.688;2023-05-07T02:46:06;2.20;;;1.90;;
3747;SDS011;1889;50.058;8.688;2023-05-07T02:48:37;3.75;;;2.10;;
3747;SDS011;1889;50.058;8.688;2023-05-07T02:51:06;1.77;;;1.67;;
3747;SDS011;1889;50.058;8.688;2023-05-07T02:53:35;2.77;;;2.05;;
3747;SDS011;1889;50.058;8.688;2023-05-07T02:56:05;2.85;;;1.92;;
3747;SDS011;1889;50.058;8.688;2023-05-07T02:58:34;1.87;;;1.77;;
3747;SDS011;1889;50.058;8.688;2023-05-07T03:01:03;3.25;;;1.92;;
3747;SDS011;1889;50.058;8.688;2023-05-07T03:03:33;2.15;;;1.92;;
3747;SDS011;1889;50.058;8.688;2023-05-07T03:06:03;2.25;;;1.95;;
3747;SDS011;1889;50.058;8.688;2023-05-07T03:08:33;2.45;;;2.08;;
3747;SDS011;1889;50.058;8.688;2023-05-07T03:11:02;2.77;;;1.95;;
3747;SDS011;1889;50.058;8.688;2023-05-07T03:13:31;1.62;;;1.52;;
3747;SDS011;1889;50.058;8.688;2023-05-07T03:16:01;2.00;;;1.80;;
3747;SDS011;1889;50.058;8.688;2023-05-07T03:18:30;2.08;;;1.75;;
3747;SDS011;1889;50.058;8.688;2023-05-07T03:20:59;2.00;;;1.85;;
3747;SDS011;1889;50.058;8.688;2023-05-07T03:23:28;2.75;;;2.00;;
3747;SDS011;1889;50.058;8.688;2023-05-07T03:25:58;1.80;;;1.70;;
3747;SDS011;1889;50.058;8.688;2023-05-07T03:28:27;3.17;;;1.80;;
3747;SDS011;1889;50.058;8.688;2023-05-07T03:30:56;1.82;;;1.72;;
3747;SDS011;1889;50.058;8.688;2023-05-07T03:33:26;2.30;;;2.10;;
3747;SDS011;1889;50.058;8.688;2023-05-07T03:35:55;2.33;;;1.80;;
3747;SDS011;1889;50.058;8.688;2023-05-07T03:38:24;3.27;;;1.77;;
3747;SDS011;1889;50.058;8.688;2023-05-07T03:40:54;2.27;;;2.08;;
3747;SDS011;1889;50.058;8.688;2023-05-07T03:43:23;2.40;;;2.20;;
3747;SDS011;1889;50.058;8.688;2023-05-07T03:45:52;4.67;;;2.30;;
3747;SDS011;1889;50.058;8.688;2023-05-07T03:48:22;2.60;;;2.40;;
3747;SDS011;1889;50.058;8.688;2023-05-07T03:50:52;2.17;;;1.95;;
3747;SDS011;1889;50.058;8.688;2023-05-07T03:53:21;2.20;;;2.00;;
3747;SDS011;1889;50.058;8.688;2023-05-07T03:55:50;2.33;;;2.10;;
3747;SDS011;1889;50.058;8.688;2023-05-07T03:58:20;2.40;;;1.80;;
3747;SDS011;1889;50.058;8.688;2023-05-07T04:00:49;2.80;;;2.47;;
3747;SDS011;1889;50.058;8.688;2023-05-07T04:03:18;2.33;;;2.10;;
3747;SDS011;1889;50.058;8.688;2023-05-07T04:05:47;3.37;;;1.80;;
3747;SDS011;1889;50.058;8.688;2023-05-07T04:08:17;2.25;;;2.05;;
3747;SDS011;1889;50.058;8.688;2023-05-07T04:10:46;4.05;;;2.17;;
3747;SDS011;1889;50.058;8.688;2023-05-07T04:13:15;2.00;;;1.85;;
3747;SDS011;1889;50.058;8.688;2023-05-07T04:15:45;2.45;;;1.90;;
3747;SDS011;1889;50.058;8.688;2023-05-07T04:18:16;2.70;;;2.02;;
3747;SDS011;1889;50.058;8.688;2023-05-07T04:20:45;2.27;;;2.08;;
3747;SDS011;1889;50.058;8.688;2023-05-07T04:23:14;2.12;;;1.90;;
3747;SDS011;1889;50.058;8.688;2023-05-07T04:25:44;2.02;;;1.55;;
3747;SDS011;1889;50.058;8.688;2023-05-07T04:28:13;2.45;;;1.95;;
3747;SDS011;1889;50.058;8.688;2023-05-07T04:30:42;3.15;;;1.70;;
3747;SDS011;1889;50.058;8.688;2023-05-07T04:33:13;3.62;;;2.10;;
3747;SDS011;1889;50.058;8.688;2023-05-07T04:35:44;2.87;;;1.90;;
3747;SDS011;1889;50.058;8.688;2023-05-07T04:38:13;2.50;;;1.75;;
3747;SDS011;1889;50.058;8.688;2023-05-07T04:40:44;4.58;;;2.72;;
3747;SDS011;1889;50.058;8.688;2023-05-07T04:43:14;2.52;;;1.98;;
3747;SDS011;1889;50.058;8.688;2023-05-07T04:45:43;2.85;;;1.98;;
3747;SDS011;1889;50.058;8.688;2023-05-07T04:48:13;2.20;;;2.00;;
3747;SDS011;1889;50.058;8.688;2023-05-07T04:50:43;2.90;;;1.98;;
3747;SDS011;1889;50.058;8.688;2023-05-07T04:53:13;1.82;;;1.72;;
3747;SDS011;1889;50.058;8.688;2023-05-07T04:55:42;3.98;;;1.98;;
3747;SDS011;1889;50.058;8.688;2023-05-07T04:58:12;2.55;;;2.10;;
3747;SDS011;1889;50.058;8.688;2023-05-07T05:00:41;2.02;;;1.92;;
3747;SDS011;1889;50.058;8.688;2023-05-07T05:03:11;3.33;;;2.20;;
3747;SDS011;1889;50.058;8.688;2023-05-07T05:05:40;2.70;;;2.50;;
3747;SDS011;1889;50.058;8.688;2023-05-07T05:08:09;2.60;;;1.90;;
3747;SDS011;1889;50.058;8.688;2023-05-07T05:10:39;3.05;;;2.10;;
3747;SDS011;1889;50.058;8.688;2023-05-07T05:13:09;2.10;;;2.00;;
3747;SDS011;1889;50.058;8.688;2023-05-07T05:15:40;2.02;;;1.90;;
3747;SDS011;1889;50.058;8.688;2023-05-07T05:18:09;2.08;;;1.98;;
3747;SDS011;1889;50.058;8.688;2023-05-07T05:20:38;1.90;;;1.80;;
3747;SDS011;1889;50.058;8.688;2023-05-07T05:23:08;2.67;;;2.20;;
3747;SDS011;1889;50.058;8.688;2023-05-07T05:25:37;2.52;;;2.08;;
3747;SDS011;1889;50.058;8.688;2023-05-07T05:28:07;2.77;;;2.00;;
3747;SDS011;1889;50.058;8.688;2023-05-07T05:30:36;2.55;;;1.77;;
3747;SDS011;1889;50.058;8.688;2023-05-07T05:33:07;2.10;;;1.90;;
3747;SDS011;1889;50.058;8.688;2023-05-07T05:35:36;2.20;;;2.00;;
3747;SDS011;1889;50.058;8.688;2023-05-07T05:38:06;1.98;;;1.85;;
3747;SDS011;1889;50.058;8.688;2023-05-07T05:40:35;2.70;;;1.92;;
3747;SDS011;1889;50.058;8.688;2023-05-07T05:43:05;3.05;;;2.27;;
3747;SDS011;1889;50.058;8.688;2023-05-07T05:45:34;2.25;;;1.95;;
3747;SDS011;1889;50.058;8.688;2023-05-07T05:48:04;2.12;;;1.90;;
3747;SDS011;1889;50.058;8.688;2023-05-07T05:50:34;4.05;;;2.17;;
3747;SDS011;1889;50.058;8.688;2023-05-07T05:53:04;2.55;;;2.35;;
3747;SDS011;1889;50.058;8.688;2023-05-07T05:55:33;2.75;;;1.90;;
3747;SDS011;1889;50.058;8.688;2023-05-07T05:58:02;2.85;;;2.30;;
3747;SDS011;1889;50.058;8.688;2023-05-07T06:00:32;4.55;;;2.22;;
3747;SDS011;1889;50.058;8.688;2023-05-07T06:03:01;2.40;;;1.98;;
3747;SDS011;1889;50.058;8.688;2023-05-07T06:05:31;2.85;;;1.85;;
3747;SDS011;1889;50.058;8.688;2023-05-07T06:08:00;2.42;;;2.08;;
3747;SDS011;1889;50.058;8.688;2023-05-07T06:10:29;2.47;;;2.27;;
3747;SDS011;1889;50.058;8.688;2023-05-07T06:12:59;2.27;;;2.10;;
3747;SDS011;1889;50.058;8.688;2023-05-07T06:15:28;1.95;;;1.82;;
3747;SDS011;1889;50.058;8.688;2023-05-07T06:17:58;5.05;;;2.60;;
3747;SDS011;1889;50.058;8.688;2023-05-07T06:20:27;4.25;;;2.40;;
3747;SDS011;1889;50.058;8.688;2023-05-07T06:22:56;4.62;;;2.40;;
3747;SDS011;1889;50.058;8.688;2023-05-07T06:25:25;2.67;;;2.47;;
3747;SDS011;1889;50.058;8.688;2023-05-07T06:27:55;2.52;;;2.20;;
3747;SDS011;1889;50.058;8.688;2023-05-07T06:30:24;2.92;;;2.67;;
3747;SDS011;1889;50.058;8.688;2023-05-07T06:32:54;3.47;;;2.52;;
3747;SDS011;1889;50.058;8.688;2023-05-07T06:35:23;2.52;;;2.30;;
3747;SDS011;1889;50.058;8.688;2023-05-07T06:37:52;3.15;;;2.00;;
3747;SDS011;1889;50.058;8.688;2023-05-07T06:40:22;2.50;;;2.27;;
3747;SDS011;1889;50.058;8.688;2023-05-07T06:42:51;3.85;;;2.67;;
3747;SDS011;1889;50.058;8.688;2023-05-07T06:45:21;2.50;;;2.20;;
3747;SDS011;1889;50.058;8.688;2023-05-07T06:47:51;2.70;;;2.50;;
3747;SDS011;1889;50.058;8.688;2023-05-07T06:50:20;3.00;;;2.67;;
3747;SDS011;1889;50.058;8.688;2023-05-07T06:52:49;2.90;;;2.70;;
3747;SDS011;1889;50.058;8.688;2023-05-07T06:55:19;3.00;;;2.50;;
3747;SDS011;1889;50.058;8.688;2023-05-07T06:57:48;2.77;;;2.58;;
3747;SDS011;1889;50.058;8.688;2023-05-07T07:00:17;3.65;;;2.70;;
3747;SDS011;1889;50.058;8.688;2023-05-07T07:02:47;2.87;;;2.67;;
3747;SDS011;1889;50.058;8.688;2023-05-07T07:05:17;3.47;;;2.80;;
3747;SDS011;1889;50.058;8.688;2023-05-07T07:07:46;3.52;;;2.47;;
3747;SDS011;1889;50.058;8.688;2023-05-07T07:10:20;2.77;;;2.58;;
3747;SDS011;1889;50.058;8.688;2023-05-07T07:12:50;2.90;;;2.62;;
3747;SDS011;1889;50.058;8.688;2023-05-07T07:15:20;2.65;;;2.45;;
3747;SDS011;1889;50.058;8.688;2023-05-07T07:17:49;2.92;;;2.72;;
3747;SDS011;1889;50.058;8.688;2023-05-07T07:20:19;3.25;;;2.95;;
3747;SDS011;1889;50.058;8.688;2023-05-07T07:22:48;2.65;;;2.45;;
3747;SDS011;1889;50.058;8.688;2023-05-07T07:25:17;3.10;;;2.70;;
3747;SDS011;1889;50.058;8.688;2023-05-07T07:27:47;2.90;;;2.70;;
3747;SDS011;1889;50.058;8.688;2023-05-07T07:30:16;3.85;;;2.80;;
3747;SDS011;1889;50.058;8.688;2023-05-07T07:32:45;2.98;;;2.60;;
3747;SDS011;1889;50.058;8.688;2023-05-07T07:35:15;3.80;;;2.87;;
3747;SDS011;1889;50.058;8.688;2023-05-07T07:37:44;3.08;;;2.77;;
3747;SDS011;1889;50.058;8.688;2023-05-07T07:40:13;2.60;;;2.40;;
3747;SDS011;1889;50.058;8.688;2023-05-07T07:42:43;3.10;;;2.90;;
3747;SDS011;1889;50.058;8.688;2023-05-07T07:45:12;2.80;;;2.60;;
3747;SDS011;1889;50.058;8.688;2023-05-07T07:47:42;2.70;;;2.50;;
3747;SDS011;1889;50.058;8.688;2023-05-07T07:50:11;3.15;;;2.67;;
3747;SDS011;1889;50.058;8.688;2023-05-07T07:52:40;3.98;;;3.00;;
3747;SDS011;1889;50.058;8.688;2023-05-07T07:55:10;3.83;;;2.85;;
3747;SDS011;1889;50.058;8.688;2023-05-07T07:57:39;2.75;;;2.55;;
3747;SDS011;1889;50.058;8.688;2023-05-07T08:00:09;2.77;;;2.58;;
3747;SDS011;1889;50.058;8.688;2023-05-07T08:02:38;2.65;;;2.45;;
3747;SDS011;1889;50.058;8.688;2023-05-07T08:05:08;2.80;;;2.60;;
3747;SDS011;1889;50.058;8.688;2023-05-07T08:07:37;2.75;;;2.27;;
3747;SDS011;1889;50.058;8.688;2023-05-07T08:10:06;2.80;;;2.50;;
3747;SDS011;1889;50.058;8.688;2023-05-07T08:12:36;3.10;;;2.40;;
3747;SDS011;1889;50.058;8.688;2023-05-07T08:15:05;3.55;;;3.17;;
3747;SDS011;1889;50.058;8.688;2023-05-07T08:17:35;3.87;;;2.83;;
3747;SDS011;1889;50.058;8.688;2023-05-07T08:20:04;2.80;;;2.60;;
3747;SDS011;1889;50.058;8.688;2023-05-07T08:22:34;2.80;;;2.60;;
3747;SDS011;1889;50.058;8.688;2023-05-07T08:25:04;3.58;;;2.90;;
3747;SDS011;1889;50.058;8.688;2023-05-07T08:27:33;4.47;;;2.80;;
3747;SDS011;1889;50.058;8.688;2023-05-07T08:30:03;4.00;;;2.67;;
3747;SDS011;1889;50.058;8.688;2023-05-07T08:32:32;3.43;;;3.13;;
3747;SDS011;1889;50.058;8.688;2023-05-07T08:35:01;3.13;;;2.80;;
3747;SDS011;1889;50.058;8.688;2023-05-07T08:37:30;3.10;;;2.90;;
3747;SDS011;1889;50.058;8.688;2023-05-07T08:39:59;3.90;;;2.87;;
3747;SDS011;1889;50.058;8.688;2023-05-07T08:42:28;3.50;;;2.60;;
3747;SDS011;1889;50.058;8.688;2023-05-07T08:44:59;3.33;;;3.03;;
3747;SDS011;1889;50.058;8.688;2023-05-07T08:47:29;3.73;;;2.83;;
3747;SDS011;1889;50.058;8.688;2023-05-07T08:50:01;3.93;;;2.90;;
3747;SDS011;1889;50.058;8.688;2023-05-07T08:52:30;3.33;;;3.13;;
3747;SDS011;1889;50.058;8.688;2023-05-07T08:55:01;3.72;;;3.02;;
3747;SDS011;1889;50.058;8.688;2023-05-07T08:57:31;3.03;;;2.80;;
3747;SDS011;1889;50.058;8.688;2023-05-07T09:00:00;4.60;;;2.72;;
3747;SDS011;1889;50.058;8.688;2023-05-07T09:02:31;3.00;;;2.80;;
3747;SDS011;1889;50.058;8.688;2023-05-07T09:05:00;3.33;;;3.10;;
3747;SDS011;1889;50.058;8.688;2023-05-07T09:07:30;2.73;;;2.53;;
3747;SDS011;1889;50.058;8.688;2023-05-07T09:10:00;3.20;;;2.90;;
3747;SDS011;1889;50.058;8.688;2023-05-07T09:12:31;3.07;;;2.87;;
3747;SDS011;1889;50.058;8.688;2023-05-07T09:15:02;4.63;;;3.10;;
3747;SDS011;1889;50.058;8.688;2023-05-07T09:17:31;3.13;;;2.93;;
3747;SDS011;1889;50.058;8.688;2023-05-07T09:20:04;2.83;;;2.63;;
3747;SDS011;1889;50.058;8.688;2023-05-07T09:22:33;2.80;;;2.60;;
3747;SDS011;1889;50.058;8.688;2023-05-07T09:25:05;3.87;;;3.00;;
3747;SDS011;1889;50.058;8.688;2023-05-07T09:27:35;3.53;;;3.07;;
3747;SDS011;1889;50.058;8.688;2023-05-07T09:30:04;3.80;;;3.40;;
3747;SDS011;1889;50.058;8.688;2023-05-07T09:32:37;3.43;;;3.13;;
3747;SDS011;1889;50.058;8.688;2023-05-07T09:35:06;4.23;;;2.80;;
3747;SDS011;1889;50.058;8.688;2023-05-07T09:37:44;3.53;;;3.23;;
3747;SDS011;1889;50.058;8.688;2023-05-07T09:40:23;6.60;;;3.07;;
3747;SDS011;1889;50.058;8.688;2023-05-07T09:42:54;2.90;;;2.70;;
3747;SDS011;1889;50.058;8.688;2023-05-07T09:45:27;3.00;;;2.80;;
3747;SDS011;1889;50.058;8.688;2023-05-07T09:47:57;4.10;;;2.97;;
3747;SDS011;1889;50.058;8.688;2023-05-07T09:50:27;3.27;;;2.97;;
3747;SDS011;1889;50.058;8.688;2023-05-07T09:52:57;3.10;;;2.90;;
3747;SDS011;1889;50.058;8.688;2023-05-07T09:55:26;3.07;;;2.87;;
3747;SDS011;1889;50.058;8.688;2023-05-07T09:57:56;3.00;;;2.80;;
3747;SDS011;1889;50.058;8.688;2023-05-07T10:00:26;3.20;;;2.93;;
3747;SDS011;1889;50.058;8.688;2023-05-07T10:02:57;3.30;;;3.00;;
3747;SDS011;1889;50.058;8.688;2023-05-07T10:05:26;2.83;;;2.63;;
3747;SDS011;1889;50.058;8.688;2023-05-07T10:07:56;2.83;;;2.63;;
3747;SDS011;1889;50.058;8.688;2023-05-07T10:10:26;2.90;;;2.70;;
3747;SDS011;1889;50.058;8.688;2023-05-07T10:12:57;3.73;;;3.43;;
3747;SDS011;1889;50.058;8.688;2023-05-07T10:15:26;2.77;;;2.60;;
3747;SDS011;1889;50.058;8.688;2023-05-07T10:17:57;3.07;;;2.60;;
3747;SDS011;1889;50.058;8.688;2023-05-07T10:20:26;3.17;;;2.97;;
3747;SDS011;1889;50.058;8.688;2023-05-07T10:22:55;3.13;;;2.93;;
3747;SDS011;1889;50.058;8.688;2023-05-07T10:25:32;3.13;;;2.93;;
3747;SDS011;1889;50.058;8.688;2023-05-07T10:28:04;2.90;;;2.70;;
3747;SDS011;1889;50.058;8.688;2023-05-07T10:33:08;3.97;;;2.70;;
3747;SDS011;1889;50.058;8.688;2023-05-07T10:35:41;3.00;;;2.80;;
3747;SDS011;1889;50.058;8.688;2023-05-07T10:38:11;2.93;;;2.53;;
3747;SDS011;1889;50.058;8.688;2023-05-07T10:40:41;2.60;;;2.40;;
3747;SDS011;1889;50.058;8.688;2023-05-07T10:43:10;3.03;;;2.73;;
3747;SDS011;1889;50.058;8.688;2023-05-07T10:45:39;3.17;;;2.97;;
3747;SDS011;1889;50.058;8.688;2023-05-07T10:48:13;3.20;;;2.90;;
3747;SDS011;1889;50.058;8.688;2023-05-07T10:50:43;2.67;;;2.47;;
3747;SDS011;1889;50.058;8.688;2023-05-07T11:00:57;2.70;;;2.50;;
3747;SDS011;1889;50.058;8.688;2023-05-07T11:03:27;4.10;;;2.90;;
3747;SDS011;1889;50.058;8.688;2023-05-07T11:06:10;3.57;;;2.60;;
3747;SDS011;1889;50.058;8.688;2023-05-07T11:17:12;3.07;;;2.80;;
3747;SDS011;1889;50.058;8.688;2023-05-07T11:19:47;4.27;;;2.63;;
3747;SDS011;1889;50.058;8.688;2023-05-07T11:25:06;3.10;;;2.90;;
3747;SDS011;1889;50.058;8.688;2023-05-07T11:27:36;4.73;;;3.00;;
3747;SDS011;1889;50.058;8.688;2023-05-07T11:30:05;3.93;;;3.00;;
3747;SDS011;1889;50.058;8.688;2023-05-07T11:32:35;3.30;;;2.90;;
3747;SDS011;1889;50.058;8.688;2023-05-07T11:35:04;2.77;;;2.57;;
3747;SDS011;1889;50.058;8.688;2023-05-07T11:37:34;2.90;;;2.60;;
3747;SDS011;1889;50.058;8.688;2023-05-07T11:40:04;2.80;;;2.60;;
3747;SDS011;1889;50.058;8.688;2023-05-07T11:42:35;2.73;;;2.53;;
3747;SDS011;1889;50.058;8.688;2023-05-07T11:45:06;3.13;;;2.83;;
3747;SDS011;1889;50.058;8.688;2023-05-07T11:47:35;3.37;;;2.47;;
3747;SDS011;1889;50.058;8.688;2023-05-07T11:50:05;2.73;;;2.53;;
3747;SDS011;1889;50.058;8.688;2023-05-07T11:52:35;2.70;;;2.43;;
3747;SDS011;1889;50.058;8.688;2023-05-07T11:55:06;2.80;;;2.60;;
3747;SDS011;1889;50.058;8.688;2023-05-07T11:57:35;5.13;;;2.60;;
3747;SDS011;1889;50.058;8.688;2023-05-07T12:00:05;2.30;;;2.20;;
3747;SDS011;1889;50.058;8.688;2023-05-07T12:02:34;3.17;;;2.40;;
3747;SDS011;1889;50.058;8.688;2023-05-07T12:05:03;2.60;;;2.40;;
3747;SDS011;1889;50.058;8.688;2023-05-07T12:07:36;2.50;;;2.30;;
3747;SDS011;1889;50.058;8.688;2023-05-07T12:10:05;2.77;;;2.13;;
3747;SDS011;1889;50.058;8.688;2023-05-07T12:12:38;1.77;;;1.67;;
3747;SDS011;1889;50.058;8.688;2023-05-07T12:15:08;1.90;;;1.63;;
3747;SDS011;1889;50.058;8.688;2023-05-07T12:17:37;2.13;;;2.03;;
3747;SDS011;1889;50.058;8.688;2023-05-07T12:20:08;2.63;;;2.43;;
3747;SDS011;1889;50.058;8.688;2023-05-07T12:22:37;2.87;;;2.50;;
3747;SDS011;1889;50.058;8.688;2023-05-07T12:25:07;2.70;;;2.50;;
3747;SDS011;1889;50.058;8.688;2023-05-07T12:27:40;3.00;;;2.07;;
3747;SDS011;1889;50.058;8.688;2023-05-07T12:30:09;2.17;;;2.07;;
3747;SDS011;1889;50.058;8.688;2023-05-07T12:32:39;2.63;;;2.43;;
3747;SDS011;1889;50.058;8.688;2023-05-07T12:35:08;3.43;;;2.30;;
3747;SDS011;1889;50.058;8.688;2023-05-07T12:37:37;2.10;;;2.00;;
3747;SDS011;1889;50.058;8.688;2023-05-07T12:40:08;2.30;;;2.10;;
3747;SDS011;1889;50.058;8.688;2023-05-07T12:42:39;2.53;;;2.33;;
3747;SDS011;1889;50.058;8.688;2023-05-07T12:45:10;3.03;;;2.20;;
3747;SDS011;1889;50.058;8.688;2023-05-07T12:47:39;2.53;;;1.90;;
3747;SDS011;1889;50.058;8.688;2023-05-07T12:50:16;2.17;;;1.60;;
3747;SDS011;1889;50.058;8.688;2023-05-07T12:52:45;2.27;;;1.90;;
3747;SDS011;1889;50.058;8.688;2023-05-07T12:55:16;2.00;;;1.80;;
3747;SDS011;1889;50.058;8.688;2023-05-07T12:57:47;2.87;;;1.90;;
3747;SDS011;1889;50.058;8.688;2023-05-07T13:00:40;2.20;;;1.77;;
3747;SDS011;1889;50.058;8.688;2023-05-07T13:03:05;1.90;;;1.80;;
3747;SDS011;1889;50.058;8.688;2023-05-07T13:05:34;2.07;;;1.80;;
3747;SDS011;1889;50.058;8.688;2023-05-07T13:08:03;1.93;;;1.83;;
3747;SDS011;1889;50.058;8.688;2023-05-07T13:10:33;1.90;;;1.80;;
3747;SDS011;1889;50.058;8.688;2023-05-07T13:13:02;1.70;;;1.60;;
3747;SDS011;1889;50.058;8.688;2023-05-07T13:15:31;3.53;;;2.10;;
3747;SDS011;1889;50.058;8.688;2023-05-07T13:18:00;2.20;;;1.77;;
3747;SDS011;1889;50.058;8.688;2023-05-07T13:20:29;2.83;;;2.03;;
3747;SDS011;1889;50.058;8.688;2023-05-07T13:22:58;2.70;;;2.50;;
3747;SDS011;1889;50.058;8.688;2023-05-07T13:25:29;2.17;;;1.97;;
3747;SDS011;1889;50.058;8.688;2023-05-07T13:27:58;1.50;;;1.40;;
3747;SDS011;1889;50.058;8.688;2023-05-07T13:30:27;1.60;;;1.37;;
3747;SDS011;1889;50.058;8.688;2023-05-07T13:32:56;3.40;;;1.70;;
3747;SDS011;1889;50.058;8.688;2023-05-07T13:35:25;2.50;;;2.30;;
3747;SDS011;1889;50.058;8.688;2023-05-07T13:37:54;2.37;;;1.67;;
3747;SDS011;1889;50.058;8.688;2023-05-07T13:40:24;2.23;;;1.77;;
3747;SDS011;1889;50.058;8.688;2023-05-07T13:42:53;2.00;;;1.90;;
3747;SDS011;1889;50.058;8.688;2023-05-07T13:45:23;5.00;;;1.90;;
3747;SDS011;1889;50.058;8.688;2023-05-07T13:47:53;3.07;;;2.10;;
3747;SDS011;1889;50.058;8.688;2023-05-07T13:50:23;2.20;;;1.90;;
3747;SDS011;1889;50.058;8.688;2023-05-07T13:52:54;2.43;;;2.23;;
3747;SDS011;1889;50.058;8.688;2023-05-07T13:55:23;3.73;;;2.10;;
3747;SDS011;1889;50.058;8.688;2023-05-07T13:58:01;2.30;;;1.87;;
3747;SDS011;1889;50.058;8.688;2023-05-07T14:00:27;1.67;;;1.57;;
3747;SDS011;1889;50.058;8.688;2023-05-07T14:02:57;2.00;;;1.90;;
3747;SDS011;1889;50.058;8.688;2023-05-07T14:05:26;2.03;;;1.90;;
3747;SDS011;1889;50.058;8.688;2023-05-07T14:07:56;1.77;;;1.67;;
3747;SDS011;1889;50.058;8.688;2023-05-07T14:10:26;2.00;;;1.90;;
3747;SDS011;1889;50.058;8.688;2023-05-07T14:12:55;2.37;;;2.17;;
3747;SDS011;1889;50.058;8.688;2023-05-07T14:15:24;1.90;;;1.80;;
3747;SDS011;1889;50.058;8.688;2023-05-07T14:17:53;2.83;;;2.17;;
3747;SDS011;1889;50.058;8.688;2023-05-07T14:20:22;3.33;;;2.20;;
3747;SDS011;1889;50.058;8.688;2023-05-07T14:22:51;2.00;;;1.90;;
3747;SDS011;1889;50.058;8.688;2023-05-07T14:25:20;2.10;;;1.90;;
3747;SDS011;1889;50.058;8.688;2023-05-07T14:27:49;1.73;;;1.63;;
3747;SDS011;1889;50.058;8.688;2023-05-07T14:30:18;2.07;;;1.97;;
3747;SDS011;1889;50.058;8.688;2023-05-07T14:32:47;1.90;;;1.77;;
3747;SDS011;1889;50.058;8.688;2023-05-07T14:35:17;3.13;;;1.60;;
3747;SDS011;1889;50.058;8.688;2023-05-07T14:37:46;1.50;;;1.40;;
3747;SDS011;1889;50.058;8.688;2023-05-07T14:40:15;3.17;;;2.00;;
3747;SDS011;1889;50.058;8.688;2023-05-07T14:42:44;2.33;;;1.97;;
3747;SDS011;1889;50.058;8.688;2023-05-07T14:45:13;2.43;;;1.50;;
3747;SDS011;1889;50.058;8.688;2023-05-07T14:47:42;1.60;;;1.50;;
3747;SDS011;1889;50.058;8.688;2023-05-07T14:50:11;1.83;;;1.73;;
3747;SDS011;1889;50.058;8.688;2023-05-07T14:52:40;1.90;;;1.80;;
3747;SDS011;1889;50.058;8.688;2023-05-07T14:55:09;2.20;;;2.00;;
3747;SDS011;1889;50.058;8.688;2023-05-07T14:57:38;2.20;;;2.03;;
3747;SDS011;1889;50.058;8.688;2023-05-07T15:00:07;2.20;;;2.07;;
3747;SDS011;1889;50.058;8.688;2023-05-07T15:02:38;2.20;;;2.00;;
3747;SDS011;1889;50.058;8.688;2023-05-07T15:05:07;2.00;;;1.90;;
3747;SDS011;1889;50.058;8.688;2023-05-07T15:07:36;2.20;;;2.00;;
3747;SDS011;1889;50.058;8.688;2023-05-07T15:10:05;3.50;;;1.97;;
3747;SDS011;1889;50.058;8.688;2023-05-07T15:12:34;3.17;;;2.10;;
3747;SDS011;1889;50.058;8.688;2023-05-07T15:15:04;2.00;;;1.90;;
3747;SDS011;1889;50.058;8.688;2023-05-07T15:17:33;2.07;;;1.97;;
3747;SDS011;1889;50.058;8.688;2023-05-07T15:20:02;2.23;;;2.03;;
3747;SDS011;1889;50.058;8.688;2023-05-07T15:22:32;2.03;;;1.93;;
3747;SDS011;1889;50.058;8.688;2023-05-07T15:25:03;6.60;;;2.40;;
3747;SDS011;1889;50.058;8.688;2023-05-07T15:27:32;2.40;;;2.20;;
3747;SDS011;1889;50.058;8.688;2023-05-07T15:30:02;2.50;;;1.97;;
3747;SDS011;1889;50.058;8.688;2023-05-07T15:32:31;2.33;;;2.13;;
3747;SDS011;1889;50.058;8.688;2023-05-07T15:35:00;2.90;;;2.30;;
3747;SDS011;1889;50.058;8.688;2023-05-07T15:37:30;2.53;;;2.33;;
3747;SDS011;1889;50.058;8.688;2023-05-07T15:39:59;2.53;;;2.10;;
3747;SDS011;1889;50.058;8.688;2023-05-07T15:42:33;2.30;;;2.10;;
3747;SDS011;1889;50.058;8.688;2023-05-07T15:45:02;2.17;;;2.07;;
3747;SDS011;1889;50.058;8.688;2023-05-07T15:47:32;2.50;;;2.00;;
3747;SDS011;1889;50.058;8.688;2023-05-07T15:50:02;2.83;;;1.90;;
3747;SDS011;1889;50.058;8.688;2023-05-07T15:52:31;2.03;;;1.87;;